NFNA

Nausori International Airport

Nausori, Fiji
METAR NFNA 200100Z 11012KT 9999 BKN020 OVC045 26/22 Q1015
Observed Flight Rules
Oct-20 @ 01:00 UTC (an hour ago) Marginal Visual Flight Rules
Wind Visibility Clouds
110° at 12 knots 10,000+ meters
  • Broken at 2,000' AGL
  • Overcast at 4,500' AGL
Temperatures Readings
Current 26°C / 79°F
Dewpoint 22°C / 72°F
Humidity 79%
Altimeter 29.97" Hg
Pressure 1015 hPa
Elevation 5
METAR NFNA 200100Z 11012KT 9999 BKN020 OVC045 26/22 Q1015
Observed Flight Rules
Oct-20 @ 01:00 UTC
(an hour ago)
MVFR
Wind Visibility
110° at 12 knots 10,000+ meters
Clouds
  • Broken at 2,000' AGL
  • Overcast at 4,500' AGL
Temperature Dewpoint
26°C / 79°F 22°C / 72°F
Humidity Altimeter Pressure
79% 29.97" Hg 1015 hPa